Time;durP1;ratioP1;P1;durP2;ratioP2;P2;SDS_P1;SDS_P2;PMS_P1;PMS_P2;Temp;Humidity;BMP_temperature;BMP_pressure;BME280_temperature;BME280_humidity;BME280_pressure;Samples;Min_cycle;Max_cycle;Signal;HPM_P1;HPM_P2
2022/01/11 00:00:35;;;;;;;59.93;24.52;;;;;;;-7.51;82.39;102674.68;1600390;88;20932;-72
2022/01/11 00:03:05;;;;;;;66.85;24.85;;;;;;;-7.52;82.37;102682.96;1594109;88;21377;-72
2022/01/11 00:08:02;;;;;;;60.88;24.02;;;;;;;-7.59;82.29;102689.06;1618119;88;20921;-72
2022/01/11 00:10:35;;;;;;;65.15;24.00;;;;;;;-7.60;82.32;102687.67;1619875;87;20924;-72
2022/01/11 00:13:00;;;;;;;56.53;24.00;;;;;;;-7.62;82.37;102690.05;1619663;87;21520;-72
2022/01/11 00:15:28;;;;;;;60.00;23.67;;;;;;;-7.61;82.42;102683.02;1598212;87;20932;-72
2022/01/11 00:17:54;;;;;;;58.95;24.40;;;;;;;-7.60;82.38;102688.92;1594050;89;21437;-72
2022/01/11 00:20:21;;;;;;;56.55;24.07;;;;;;;-7.60;82.36;102688.92;1594665;88;20972;-72
2022/01/11 00:24:27;;;;;;;57.43;23.73;;;;;;;-7.60;82.38;102690.18;1615658;88;20964;-72
2022/01/11 00:25:16;;;;;;;58.65;23.85;;;;;;;-7.62;82.33;102689.16;1610875;87;20944;-72
2022/01/11 00:27:42;;;;;;;57.33;23.85;;;;;;;-7.67;82.19;102693.40;1609154;88;21678;-72
2022/01/11 00:30:09;;;;;;;49.15;21.85;;;;;;;-7.74;82.13;102691.08;1620027;88;20873;-72
2022/01/11 00:32:47;;;;;;;57.95;22.15;;;;;;;-7.78;82.14;102696.56;1608711;87;20992;-72
2022/01/11 00:35:04;;;;;;;54.42;22.42;;;;;;;-7.81;82.20;102692.92;1598852;87;20932;-72
2022/01/11 00:37:30;;;;;;;56.30;24.10;;;;;;;-7.84;82.20;102694.78;1621151;87;20971;-72
2022/01/11 00:39:56;;;;;;;57.98;24.67;;;;;;;-7.86;82.21;102697.53;1646567;86;21879;-72
2022/01/11 00:42:22;;;;;;;;;;;;;;;-7.87;82.21;102697.39;1615143;86;20988;-72
2022/01/11 00:44:49;;;;;;;52.67;19.50;;;;;;;-7.91;82.14;102694.09;1604259;86;20101;-72
2022/01/11 00:47:15;;;;;;;57.15;22.13;;;;;;;-7.97;82.12;102698.17;1598875;88;21567;-72
2022/01/11 00:49:42;;;;;;;58.23;24.02;;;;;;;-7.98;82.21;102695.52;1569696;90;21474;-72
2022/01/11 00:52:09;;;;;;;61.88;23.73;;;;;;;-8.00;82.26;102700.41;1579361;90;20888;-72
2022/01/11 00:54:35;;;;;;;59.30;23.05;;;;;;;-8.00;82.28;102700.41;1589261;88;20955;-72
2022/01/11 00:57:01;;;;;;;58.33;24.52;;;;;;;-8.04;82.21;102703.00;1588755;88;21788;-72
2022/01/11 00:59:26;;;;;;;54.40;23.45;;;;;;;-8.07;82.21;102703.98;1593913;88;20892;-72
2022/01/11 01:01:52;;;;;;;59.40;25.40;;;;;;;-8.08;82.17;102702.58;1588564;88;21054;-72
2022/01/11 01:04:18;;;;;;;61.95;24.20;;;;;;;-8.11;82.17;102703.55;1577767;90;20883;-72
2022/01/11 01:06:45;;;;;;;60.70;23.98;;;;;;;-8.13;82.21;102709.69;1593969;88;20990;-72
2022/01/11 01:09:12;;;;;;;60.35;25.20;;;;;;;-8.15;82.17;102711.54;1573430;89;20931;-72
2022/01/11 01:11:38;;;;;;;57.33;24.23;;;;;;;-8.18;82.17;102708.37;1593927;88;21519;-72
2022/01/11 01:14:05;;;;;;;;;;;;;;;-8.18;82.23;102710.89;1596218;90;20971;-72
2022/01/11 01:16:31;;;;;;;52.93;21.80;;;;;;;-8.19;82.16;102712.88;1589072;89;20797;-72
2022/01/11 01:18:56;;;;;;;64.22;26.33;;;;;;;-8.27;81.98;102697.86;1578628;89;20895;-72
2022/01/11 01:21:22;;;;;;;61.53;24.15;;;;;;;-8.24;82.13;102707.81;1593919;89;20895;-72
2022/01/11 01:23:49;;;;;;;65.85;24.43;;;;;;;-8.23;82.24;102714.97;1593906;90;20923;-72
2022/01/11 01:26:17;;;;;;;;;;;;;;;-8.25;82.17;102707.66;1607667;88;20931;-72
2022/01/11 01:28:42;;;;;;;64.30;23.38;;;;;;;-8.27;82.18;102712.54;1588342;88;21276;-72
2022/01/11 01:31:08;;;;;;;;;;;;;;;-8.29;82.10;102716.53;1591570;90;21065;-72
2022/01/11 01:33:34;;;;;;;;;;;;;;;-8.33;82.11;102712.41;1568746;89;20203;-72
2022/01/11 01:36:11;;;;;;;;;;;;;;;-8.36;82.05;102711.75;1543898;90;20267;-72
2022/01/11 01:38:31;;;;;;;57.45;19.42;;;;;;;-8.40;82.04;102710.58;1573151;88;20147;-72
2022/01/11 01:41:08;;;;;;;60.12;22.20;;;;;;;-8.45;82.00;102709.64;1588891;90;20971;-72
2022/01/11 01:43:27;;;;;;;49.75;21.65;;;;;;;-8.48;82.01;102718.13;1578450;90;20971;-72
2022/01/11 01:45:55;;;;;;;52.75;21.42;;;;;;;-8.52;81.99;102716.95;1585332;89;20912;-72
2022/01/11 01:48:21;;;;;;;54.27;23.18;;;;;;;-8.54;82.02;102713.79;1589150;89;20971;-72
2022/01/11 01:50:48;;;;;;;56.85;22.75;;;;;;;-8.53;82.12;102716.81;1589294;90;20918;-72
2022/01/11 01:53:14;;;;;;;59.10;24.15;;;;;;;-8.51;82.18;102723.74;1560468;90;21047;-72
2022/01/11 01:55:44;;;;;;;64.03;24.20;;;;;;;-8.55;82.05;102721.69;1569736;88;20908;-72
2022/01/11 01:58:10;;;;;;;57.45;22.67;;;;;;;-8.56;82.09;102718.66;1569135;89;20939;-72
2022/01/11 02:00:42;;;;;;;52.88;22.15;;;;;;;-8.55;82.09;102727.07;1587317;89;21120;-72
2022/01/11 02:03:10;;;;;;;57.38;25.10;;;;;;;-8.59;81.99;102726.27;1588948;89;20968;-72
2022/01/11 02:05:37;;;;;;;58.13;23.45;;;;;;;-8.64;82.01;102728.34;1589223;90;20929;-72
2022/01/11 02:08:05;;;;;;;58.00;22.60;;;;;;;-8.65;82.00;102729.45;1611139;88;20921;-72
2022/01/11 02:10:31;;;;;;;56.88;23.83;;;;;;;-8.66;82.07;102731.07;1620089;88;20921;-72
2022/01/11 02:13:00;;;;;;;52.60;21.85;;;;;;;-8.67;82.04;102731.81;1620240;87;20969;-72
2022/01/11 02:15:27;;;;;;;62.38;24.18;;;;;;;-8.67;82.09;102731.81;1619748;87;20973;-72
2022/01/11 02:17:53;;;;;;;61.42;23.20;;;;;;;-8.67;82.06;102736.83;1600877;88;20992;-72
2022/01/11 02:20:19;;;;;;;61.33;24.02;;;;;;;-8.69;82.00;102740.44;1593023;88;20888;-72
2022/01/11 02:22:45;;;;;;;56.48;22.95;;;;;;;-8.69;81.99;102739.55;1608613;88;21146;-72
2022/01/11 02:25:11;;;;;;;52.85;21.85;;;;;;;-8.72;81.95;102742.66;1618419;87;20914;-72
2022/01/11 02:27:38;;;;;;;58.55;22.58;;;;;;;-8.72;82.01;102744.28;1605560;86;21047;-72
2022/01/11 02:30:05;;;;;;;61.10;22.45;;;;;;;-8.74;81.98;102752.02;1592476;88;21087;-72
2022/01/11 02:32:31;;;;;;;65.37;23.02;;;;;;;-8.77;81.92;102750.11;1604746;87;21090;-72
2022/01/11 02:34:58;;;;;;;;;;;;;;;-8.81;81.86;102754.68;1612974;87;21050;-72
2022/01/11 02:37:24;;;;;;;54.45;21.97;;;;;;;-8.84;81.96;102756.56;1592007;88;20153;-72
2022/01/11 02:39:50;;;;;;;;;;;;;;;-8.81;82.02;102758.07;1601343;87;20942;-72
2022/01/11 02:42:15;;;;;;;;;;;;;;;-8.83;81.91;102753.65;1610613;87;20186;-72
2022/01/11 02:44:41;;;;;;;;;;;;;;;-8.86;81.89;102755.89;1617831;87;20207;-72
2022/01/11 02:47:07;;;;;;;;;;;;;;;-8.90;81.80;102748.45;1613274;88;20556;-72
2022/01/11 02:49:33;;;;;;;52.13;19.27;;;;;;;-8.98;81.74;102753.09;1621680;87;20234;-72
2022/01/11 02:51:59;;;;;;;50.90;19.25;;;;;;;-9.01;81.88;102747.78;1617203;86;21107;-72
2022/01/11 02:54:26;;;;;;;51.85;21.07;;;;;;;-9.01;81.96;102749.04;1617898;87;21119;-71
2022/01/11 02:56:51;;;;;;;58.40;21.80;;;;;;;-8.99;81.95;102750.08;1636433;87;21067;-71
2022/01/11 02:59:17;;;;;;;60.28;21.77;;;;;;;-9.02;81.87;102749.41;1639551;86;20904;-71
2022/01/11 03:01:43;;;;;;;60.80;22.42;;;;;;;-9.09;81.72;102749.92;1600392;87;20904;-72
2022/01/11 03:04:09;;;;;;;60.20;22.60;;;;;;;-9.13;81.78;102757.88;1592345;89;21094;-72
2022/01/11 03:06:35;;;;;;;;;;;;;;;-9.15;81.79;102755.59;1594677;89;21632;-72
2022/01/11 03:09:01;;;;;;;48.60;19.23;;;;;;;-9.19;81.75;102759.42;1606714;88;20185;-72
2022/01/11 03:11:32;;;;;;;;;;;;;;;-9.20;81.83;102757.65;1620281;87;20980;-72
2022/01/11 03:13:55;;;;;;;53.73;20.43;;;;;;;-9.19;81.85;102759.78;1617210;88;20327;-72
2022/01/11 03:16:20;;;;;;;53.23;22.52;;;;;;;-9.17;81.94;102764.21;1617846;88;21514;-72
2022/01/11 03:18:47;;;;;;;59.88;21.70;;;;;;;-9.17;81.87;102760.45;1601814;88;21721;-72
2022/01/11 03:21:13;;;;;;;57.23;23.47;;;;;;;-9.16;81.89;102766.34;1595217;87;21518;-72
2022/01/11 03:23:39;;;;;;;;;;;;;;;-9.16;81.88;102764.73;1602488;88;20932;-72
2022/01/11 03:26:05;;;;;;;;;;;;;;;-9.20;81.78;102766.42;1630176;87;20210;-72
2022/01/11 03:28:31;;;;;;;;;;;;;;;-9.20;81.78;102770.54;1613687;86;20954;-72
2022/01/11 03:30:58;;;;;;;54.05;19.90;;;;;;;-9.18;81.86;102767.45;1609485;87;21172;-72
2022/01/11 03:33:25;;;;;;;55.60;20.02;;;;;;;-9.14;81.96;102764.88;1618925;86;21567;-72
2022/01/11 03:35:52;;;;;;;63.35;22.07;;;;;;;-9.13;81.90;102772.91;1597793;88;20968;-72
2022/01/11 03:38:19;;;;;;;58.70;21.97;;;;;;;-9.15;81.86;102766.86;1612011;87;20940;-72
2022/01/11 03:40:45;;;;;;;63.25;23.98;;;;;;;-9.18;81.79;102776.22;1611662;87;21463;-72
2022/01/11 03:43:11;;;;;;;53.28;21.73;;;;;;;-9.23;81.74;102776.51;1592144;88;21127;-72
2022/01/11 03:45:38;;;;;;;46.68;19.20;;;;;;;-9.23;81.78;102783.66;1599906;86;21064;-72
2022/01/11 03:48:07;;;;;;;51.08;20.10;;;;;;;-9.24;81.80;102780.63;1621663;88;21131;-72
2022/01/11 03:50:34;;;;;;;53.25;22.10;;;;;;;-9.23;81.78;102784.91;1618864;88;21082;-71
2022/01/11 03:53:15;;;;;;;59.35;23.12;;;;;;;-9.29;81.64;102784.67;1624251;86;20962;-72
2022/01/11 03:55:58;;;;;;;63.08;23.85;;;;;;;-9.30;81.77;102783.79;1629459;86;20972;-72
2022/01/11 03:58:15;;;;;;;60.50;23.10;;;;;;;-9.29;81.81;102779.66;1618849;86;21074;-72
2022/01/11 04:00:43;;;;;;;61.95;23.87;;;;;;;-9.28;81.88;102787.70;1619254;87;21013;-72
2022/01/11 04:03:10;;;;;;;62.30;23.40;;;;;;;-9.20;82.06;102785.20;1596794;87;21440;-72
2022/01/11 04:05:36;;;;;;;59.10;23.77;;;;;;;-9.17;82.00;102784.62;1595455;86;21551;-72
2022/01/11 04:08:03;;;;;;;61.23;22.98;;;;;;;-9.14;81.98;102786.17;1596838;88;20971;-72
2022/01/11 04:10:29;;;;;;;57.55;21.23;;;;;;;-9.16;81.88;102778.51;1596912;88;21139;-72
2022/01/11 04:12:55;;;;;;;;;;;;;;;-9.22;81.70;102771.64;1582956;90;21760;-72
2022/01/11 04:15:21;;;;;;;51.77;19.95;;;;;;;-9.28;81.60;102776.42;1568841;90;20125;-72
2022/01/11 04:17:48;;;;;;;62.05;21.25;;;;;;;-9.34;81.59;102774.20;1586415;88;21029;-72
2022/01/11 04:20:14;;;;;;;54.65;20.48;;;;;;;-9.40;81.59;102770.77;1575957;88;21089;-72
2022/01/11 04:22:41;;;;;;;59.67;22.42;;;;;;;-9.41;81.69;102773.12;1562577;90;21628;-72
2022/01/11 04:25:08;;;;;;;51.45;21.25;;;;;;;-9.45;81.63;102770.67;1588865;90;21058;-72
2022/01/11 04:27:34;;;;;;;61.42;23.20;;;;;;;-9.47;81.61;102779.66;1613495;88;20967;-72
2022/01/11 04:30:00;;;;;;;;;;;;;;;-9.49;81.66;102771.48;1594291;89;21030;-72
2022/01/11 04:32:28;;;;;;;56.70;20.93;;;;;;;-9.47;81.70;102772.14;1587822;89;20182;-72
2022/01/11 04:34:54;;;;;;;61.88;22.07;;;;;;;-9.50;81.60;102779.72;1563067;89;617723;-72
2022/01/11 04:37:20;;;;;;;;;;;;;;;-9.52;81.63;102786.20;1584571;90;20896;-72
2022/01/11 04:39:46;;;;;;;58.23;22.62;;;;;;;-9.51;81.69;102783.84;1595241;89;20103;-72
2022/01/11 04:42:12;;;;;;;56.75;21.45;;;;;;;-9.50;81.76;102770.59;1572874;89;21719;-72
2022/01/11 04:44:38;;;;;;;58.25;22.98;;;;;;;-9.45;81.85;102776.94;1578191;88;20883;-72
2022/01/11 04:47:04;;;;;;;;;;;;;;;-9.43;81.81;102777.09;1573862;91;20975;-72
2022/01/11 04:49:30;;;;;;;67.65;23.25;;;;;;;-9.45;81.73;102774.44;1571460;91;20173;-72
2022/01/11 04:51:56;;;;;;;59.60;23.10;;;;;;;-9.43;81.75;102779.22;1583188;88;20906;-72
2022/01/11 04:54:22;;;;;;;63.17;25.40;;;;;;;-9.44;81.73;102772.45;1572180;88;21011;-71
2022/01/11 04:56:48;;;;;;;59.38;23.10;;;;;;;-9.43;81.75;102770.46;1597345;88;21717;-71
2022/01/11 04:59:14;;;;;;;65.62;23.62;;;;;;;-9.44;81.73;102771.20;1591568;87;20955;-71
2022/01/11 05:01:40;;;;;;;57.53;22.30;;;;;;;-9.43;81.71;102770.46;1570587;88;21173;-71
2022/01/11 05:04:08;;;;;;;56.85;22.70;;;;;;;-9.47;81.60;102770.89;1581727;88;21115;-71
2022/01/11 05:06:35;;;;;;;62.78;23.80;;;;;;;-9.46;81.69;102780.17;1584142;89;21101;-71
2022/01/11 05:09:02;;;;;;;68.50;24.82;;;;;;;-9.43;81.77;102775.84;1584047;89;21096;-70
2022/01/11 05:11:28;;;;;;;56.65;22.87;;;;;;;-9.50;81.54;102778.47;1581662;89;21097;-70
2022/01/11 05:13:54;;;;;;;55.30;22.62;;;;;;;-9.56;81.56;102785.00;1584877;89;20980;-70
2022/01/11 05:16:20;;;;;;;59.55;23.27;;;;;;;-9.55;81.63;102790.53;1577198;90;21110;-70
2022/01/11 05:18:47;;;;;;;60.45;22.65;;;;;;;-9.54;81.70;102790.16;1562586;91;21166;-70
2022/01/11 05:21:13;;;;;;;61.33;22.75;;;;;;;-9.53;81.73;102792.83;1563734;90;21519;-70
2022/01/11 05:23:38;;;;;;;;;;;;;;;-9.49;81.72;102797.41;1583034;88;20997;-70
2022/01/11 05:26:04;;;;;;;;;;;;;;;-9.53;81.62;102799.08;1560118;90;20180;-70
2022/01/11 05:28:33;;;;;;;;;;;;;;;-9.53;81.58;102802.84;1581259;88;20146;-70
2022/01/11 05:30:59;;;;;;;59.48;22.27;;;;;;;-9.55;81.59;102805.55;1587051;88;20198;-67
2022/01/11 05:33:24;;;;;;;;;;;;;;;-9.57;81.58;102812.03;1589234;89;20993;-67
2022/01/11 05:35:50;;;;;;;;;;;;;;;-9.58;81.63;102814.02;1598691;88;20255;-71
2022/01/11 05:38:17;;;;;;;58.00;22.07;;;;;;;-9.59;81.59;102812.61;1591216;88;20286;-72
2022/01/11 05:40:43;;;;;;;62.08;22.20;;;;;;;-9.58;81.69;102815.63;1606296;88;21542;-72
2022/01/11 05:43:11;;;;;;;69.40;24.07;;;;;;;-9.58;81.71;102820.27;1572171;90;21084;-72
2022/01/11 05:45:37;;;;;;;66.17;23.42;;;;;;;-9.59;81.61;102817.62;1568355;90;21061;-72
2022/01/11 05:48:04;;;;;;;;;;;;;;;-9.63;81.57;102815.54;1610061;86;20996;-72
2022/01/11 05:50:31;;;;;;;58.85;21.25;;;;;;;-9.65;81.52;102820.76;1618533;87;20198;-72
2022/01/11 05:52:57;;;;;;;69.25;22.32;;;;;;;-9.67;81.56;102818.10;1586079;88;21039;-73
2022/01/11 05:55:24;;;;;;;;;;;;;;;-9.69;81.52;102817.06;1582794;88;21427;-72
2022/01/11 05:57:50;;;;;;;77.20;23.87;;;;;;;-9.71;81.55;102816.02;1584903;89;20227;-72
2022/01/11 06:00:19;;;;;;;63.28;23.32;;;;;;;-9.71;81.56;102813.52;1612553;88;21007;-71
2022/01/11 06:02:48;;;;;;;85.90;27.60;;;;;;;-9.69;81.61;102815.81;1616289;87;21348;-72
2022/01/11 06:05:19;;;;;;;144.28;37.80;;;;;;;-9.69;81.66;102818.31;1617571;87;21072;-72
2022/01/11 06:07:45;;;;;;;132.67;36.98;;;;;;;-9.68;81.61;102822.59;1609699;87;21495;-72
2022/01/11 06:10:11;;;;;;;;;;;;;;;-9.68;81.61;102833.86;1602736;88;21320;-72
2022/01/11 06:12:37;;;;;;;138.55;35.83;;;;;;;-9.70;81.53;102845.33;1617924;87;20211;-72
2022/01/11 06:15:04;;;;;;;;;;;;;;;-9.74;81.48;102847.89;1620802;87;21000;-72
2022/01/11 06:17:30;;;;;;;140.97;34.63;;;;;;;-9.79;81.44;102849.05;1616222;86;20508;-72
2022/01/11 06:19:56;;;;;;;120.13;33.98;;;;;;;-9.83;81.44;102851.08;1626573;87;21133;-72
2022/01/11 06:22:24;;;;;;;134.63;35.33;;;;;;;-9.84;81.46;102851.81;1617919;87;21082;-72
2022/01/11 06:24:51;;;;;;;135.70;36.15;;;;;;;-9.87;81.46;102861.14;1617480;87;21117;-72
2022/01/11 06:27:20;;;;;;;155.43;39.67;;;;;;;-9.90;81.43;102869.63;1619071;87;21268;-74
2022/01/11 06:29:46;;;;;;;145.15;40.75;;;;;;;-9.90;81.49;102867.48;1619153;87;20934;-74
2022/01/11 06:32:12;;;;;;;125.05;34.27;;;;;;;-9.90;81.51;102877.13;1619064;87;21009;-75
2022/01/11 06:34:38;;;;;;;104.03;30.35;;;;;;;-9.89;81.58;102880.52;1607709;87;20891;-75
2022/01/11 06:37:04;;;;;;;129.25;36.23;;;;;;;-9.88;81.54;102891.05;1609788;87;21365;-75
2022/01/11 06:39:30;;;;;;;;;;;;;;;-9.87;81.58;102892.43;1614051;87;21319;-75
2022/01/11 06:41:56;;;;;;;124.97;34.37;;;;;;;-9.86;81.54;102890.45;1615574;87;20197;-75
2022/01/11 06:44:22;;;;;;;;;;;;;;;-9.85;81.50;102894.72;1621514;87;21043;-75
2022/01/11 06:46:48;;;;;;;114.93;30.77;;;;;;;-9.86;81.51;102900.82;1607810;87;20183;-75
2022/01/11 06:49:14;;;;;;;146.33;37.40;;;;;;;-9.86;81.49;102909.58;1608685;87;21045;-75
2022/01/11 06:51:39;;;;;;;;;;;;;;;-9.85;81.54;102909.73;1617607;86;20967;-75
2022/01/11 06:54:05;;;;;;;;;;;;;;;-9.85;81.50;102908.85;1623977;87;20186;-73
2022/01/11 06:56:31;;;;;;;113.43;29.67;;;;;;;-9.85;81.48;102915.99;1621216;86;20206;-73
2022/01/11 06:58:57;;;;;;;111.47;31.77;;;;;;;-9.89;81.40;102913.05;1621552;87;21112;-72
2022/01/11 07:01:23;;;;;;;125.93;34.50;;;;;;;-9.92;81.40;102919.00;1614493;86;20979;-73
2022/01/11 07:03:49;;;;;;;128.47;36.43;;;;;;;-9.93;81.50;102919.36;1610495;87;27713;-73
2022/01/11 07:06:15;;;;;;;;;;;;;;;-9.92;81.52;102921.50;1613562;87;21042;-73
2022/01/11 07:08:41;;;;;;;129.50;32.60;;;;;;;-9.91;81.47;102922.02;1615835;87;20176;-73
2022/01/11 07:11:08;;;;;;;114.75;31.77;;;;;;;-9.90;81.49;102921.29;1616380;86;21095;-73
2022/01/11 07:16:55;;;;;;;95.92;30.37;;;;;;;-9.90;81.42;102928.44;1597201;86;20212;-73
2022/01/11 07:19:23;;;;;;;105.85;30.05;;;;;;;-9.91;81.47;102930.78;1540627;91;21036;-73
2022/01/11 07:21:49;;;;;;;97.05;28.92;;;;;;;-9.89;81.53;102933.96;1549695;91;21091;-73
2022/01/11 07:24:17;;;;;;;93.62;31.33;;;;;;;-9.88;81.50;102935.73;1542699;91;21057;-73
2022/01/11 07:26:44;;;;;;;103.87;33.05;;;;;;;-9.89;81.44;102934.33;1540050;91;21044;-73
2022/01/11 07:29:10;;;;;;;93.22;28.75;;;;;;;-9.90;81.45;102938.80;1513206;93;21110;-72
2022/01/11 07:31:38;;;;;;;92.02;28.35;;;;;;;-9.90;81.46;102934.69;1534545;91;21104;-72
2022/01/11 07:34:06;;;;;;;85.03;28.63;;;;;;;-9.87;81.54;102931.22;1540583;91;21014;-73
2022/01/11 07:36:33;;;;;;;80.03;28.47;;;;;;;-9.84;81.54;102923.14;1539080;91;21426;-72
2022/01/11 07:38:59;;;;;;;75.90;29.32;;;;;;;-9.77;81.69;102922.67;1517199;92;21049;-72
2022/01/11 07:41:25;;;;;;;80.45;27.98;;;;;;;-9.70;81.69;102925.44;1543645;91;20998;-72
2022/01/11 07:43:51;;;;;;;96.47;32.35;;;;;;;-9.59;81.75;102918.65;1540880;91;21552;-73
2022/01/11 07:46:18;;;;;;;97.72;34.10;;;;;;;-9.49;81.84;102930.48;1538695;90;21305;-72
2022/01/11 07:48:44;;;;;;;97.15;35.15;;;;;;;-9.40;81.77;102932.66;1548041;90;20993;-72
2022/01/11 07:51:10;;;;;;;93.87;32.95;;;;;;;-9.38;81.68;102934.59;1549058;90;21813;-72
2022/01/11 07:53:37;;;;;;;117.93;39.20;;;;;;;-9.35;81.64;102932.36;1545950;90;21005;-72
2022/01/11 07:56:03;;;;;;;110.35;38.48;;;;;;;-9.30;81.69;102935.33;1553716;90;20978;-72
2022/01/11 07:58:30;;;;;;;87.42;34.00;;;;;;;-9.26;81.69;102936.53;1547637;90;20972;-72
2022/01/11 08:00:55;;;;;;;;;;;;;;;-9.24;81.68;102940.95;1527709;90;21010;-72
2022/01/11 08:03:21;;;;;;;92.70;32.57;;;;;;;-9.18;81.70;102941.94;1542937;90;20203;-72
2022/01/11 08:05:47;;;;;;;;;;;;;;;-9.13;81.70;102942.03;1535269;90;21659;-72
2022/01/11 08:08:14;;;;;;;85.40;29.87;;;;;;;-9.07;81.76;102938.89;1544808;90;20846;-73
2022/01/11 08:10:40;;;;;;;94.53;35.83;;;;;;;-9.04;81.71;102942.95;1548257;90;20929;-74
2022/01/11 08:13:08;;;;;;;;;;;;;;;-8.95;81.86;102945.13;1553336;90;21095;-74
2022/01/11 08:15:34;;;;;;;93.67;35.88;;;;;;;-8.86;81.91;102946.03;1550329;90;20183;-75
2022/01/11 08:18:00;;;;;;;93.47;38.30;;;;;;;-8.79;81.93;102943.37;1533910;90;21024;-74
2022/01/11 08:20:26;;;;;;;95.15;37.80;;;;;;;-8.72;81.95;102948.25;1552033;90;20957;-74
2022/01/11 08:22:54;;;;;;;89.10;35.68;;;;;;;-8.52;82.03;102947.70;1555364;90;21613;-74
2022/01/11 08:25:20;;;;;;;90.05;38.38;;;;;;;-8.52;82.03;102947.70;1562331;90;21848;-74
2022/01/11 08:27:47;;;;;;;95.15;40.28;;;;;;;-8.40;82.11;102952.66;1553268;90;20996;-74
2022/01/11 08:30:13;;;;;;;90.95;39.48;;;;;;;-8.31;82.09;102959.24;1555245;90;21112;-74
2022/01/11 08:32:39;;;;;;;94.50;40.60;;;;;;;-8.26;82.08;102960.20;1557523;90;21072;-74
2022/01/11 08:35:07;;;;;;;98.58;44.93;;;;;;;-8.15;82.18;102969.66;1521650;92;22252;-74
2022/01/11 08:37:33;;;;;;;99.60;43.48;;;;;;;-8.04;82.21;102967.81;1520711;92;22492;-74
2022/01/11 08:39:59;;;;;;;107.58;44.53;;;;;;;-7.90;82.29;102971.65;1510504;93;21553;-74
2022/01/11 08:42:31;;;;;;;107.22;46.37;;;;;;;-7.79;82.32;102966.36;1526370;93;20946;-75
2022/01/11 08:44:55;;;;;;;104.40;42.88;;;;;;;-7.70;82.27;102971.89;1532806;92;21887;-75
2022/01/11 08:47:22;;;;;;;100.75;42.10;;;;;;;-7.60;82.28;102976.53;1516622;93;21033;-75
2022/01/11 08:49:48;;;;;;;87.47;38.10;;;;;;;-7.53;82.30;102975.11;1506711;93;21020;-75
2022/01/11 08:52:14;;;;;;;;;;;;;;;-7.45;82.31;102980.13;1508151;93;21068;-74
2022/01/11 08:54:40;;;;;;;94.13;38.73;;;;;;;-7.37;82.29;102985.50;1521072;92;20537;-74
2022/01/11 08:57:07;;;;;;;81.02;35.78;;;;;;;-7.27;82.34;102990.09;1509932;93;21025;-75
2022/01/11 08:59:33;;;;;;;;;;;;;;;-7.17;82.41;102992.73;1509555;93;21465;-75
2022/01/11 09:02:03;;;;;;;218.27;78.67;;;;;;;-7.09;82.46;102990.55;1509148;93;20489;-75
2022/01/11 09:04:29;;;;;;;395.75;136.10;;;;;;;-6.99;82.50;102993.55;1513740;93;21516;-75
2022/01/11 09:06:57;;;;;;;293.97;100.65;;;;;;;-6.88;82.49;102987.88;1509543;93;20948;-75
2022/01/11 09:09:25;;;;;;;213.62;78.70;;;;;;;-6.82;82.49;102990.96;1512980;93;21637;-74
2022/01/11 09:11:51;;;;;;;188.90;72.37;;;;;;;-6.72;82.58;102998.57;1513084;93;21524;-75
2022/01/11 09:14:17;;;;;;;;;;;;;;;-6.62;82.60;102993.64;1515357;93;21441;-75
2022/01/11 09:16:44;;;;;;;159.80;60.87;;;;;;;-6.51;82.63;102993.36;1488427;94;20849;-74
2022/01/11 09:19:14;;;;;;;156.57;66.97;;;;;;;-6.40;82.67;102997.36;1511051;93;21442;-75
2022/01/11 09:21:40;;;;;;;144.68;66.47;;;;;;;-6.27;82.72;102996.83;1508324;93;20968;-75
2022/01/11 09:24:08;;;;;;;137.40;65.57;;;;;;;-6.19;82.67;102994.97;1498128;93;21508;-75
2022/01/11 09:26:35;;;;;;;192.68;90.10;;;;;;;-6.12;82.66;103003.20;1505538;93;21912;-75
2022/01/11 09:29:01;;;;;;;;;;;;;;;-6.06;82.64;103005.39;1508773;93;21525;-75
2022/01/11 09:31:27;;;;;;;165.67;75.93;;;;;;;-6.01;82.60;103010.45;1519938;92;20774;-75
2022/01/11 09:33:53;;;;;;;133.80;62.53;;;;;;;-5.95;82.65;102997.52;1509925;93;21074;-75
2022/01/11 09:36:19;;;;;;;113.92;54.35;;;;;;;-5.87;82.70;103001.20;1507360;92;21489;-72
2022/01/11 09:38:45;;;;;;;126.75;55.35;;;;;;;-5.81;82.72;102996.70;1511123;93;20898;-72
2022/01/11 09:41:11;;;;;;;143.78;63.25;;;;;;;-5.71;82.80;102999.25;1513303;93;21637;-73
2022/01/11 09:43:37;;;;;;;119.62;53.20;;;;;;;-5.61;82.81;103006.34;1519395;92;20955;-73
2022/01/11 09:46:03;;;;;;;154.07;67.30;;;;;;;-5.54;82.79;103008.28;1508865;93;21437;-73
2022/01/11 09:48:32;;;;;;;142.90;62.05;;;;;;;-5.46;82.80;102997.60;1502489;93;21516;-73
2022/01/11 09:51:00;;;;;;;152.93;67.58;;;;;;;-5.37;82.83;103005.96;1497871;93;21451;-73
2022/01/11 09:53:27;;;;;;;146.18;63.23;;;;;;;-5.28;82.91;102997.05;1502248;93;21391;-73
2022/01/11 09:55:53;;;;;;;156.00;71.02;;;;;;;-5.17;82.99;102997.55;1501928;93;21515;-72
2022/01/11 09:58:20;;;;;;;142.03;63.90;;;;;;;-5.04;83.03;103000.38;1499003;93;21474;-72
2022/01/11 10:00:46;;;;;;;158.03;68.83;;;;;;;-4.93;83.02;102998.77;1500672;93;21589;-73
2022/01/11 10:03:14;;;;;;;137.12;62.00;;;;;;;-4.85;83.01;102998.66;1511565;93;21048;-73
2022/01/11 10:05:42;;;;;;;120.75;54.08;;;;;;;-4.80;83.01;102992.36;1488130;93;21046;-73
2022/01/11 10:08:25;;;;;;;130.47;57.53;;;;;;;-4.75;83.03;102999.05;1512801;93;21030;-73
2022/01/11 10:10:53;;;;;;;134.15;56.53;;;;;;;-4.68;83.07;102996.28;1494778;93;21410;-73
2022/01/11 10:13:35;;;;;;;158.05;67.62;;;;;;;-4.59;83.10;102994.49;1502750;93;20957;-73
2022/01/11 10:16:27;;;;;;;147.85;68.07;;;;;;;-4.54;83.08;102999.55;1497128;93;21461;-73
2022/01/11 10:18:55;;;;;;;137.77;59.38;;;;;;;-4.46;83.16;103002.70;1506990;93;20985;-73
2022/01/11 10:21:38;;;;;;;120.25;56.13;;;;;;;-4.39;83.09;102981.88;1502700;93;20970;-73
2022/01/11 10:24:39;;;;;;;111.70;49.05;;;;;;;-4.39;83.09;102981.88;1496185;93;20965;-72
2022/01/11 10:26:56;;;;;;;91.87;43.90;;;;;;;-4.19;83.36;103001.19;1495686;93;21381;-73
2022/01/11 10:29:33;;;;;;;98.97;45.75;;;;;;;-4.10;83.36;103000.64;1509885;93;20976;-73
2022/01/11 10:32:02;;;;;;;;;;;;;;;-4.05;83.32;102998.11;1493896;94;21079;-73
2022/01/11 10:34:34;;;;;;;101.60;42.58;;;;;;;-3.98;83.36;102993.56;1500294;94;20202;-72
2022/01/11 10:37:04;;;;;;;114.25;50.23;;;;;;;-4.02;83.29;102976.88;1492451;93;21413;-73
2022/01/11 10:39:38;;;;;;;105.78;47.25;;;;;;;-3.85;83.42;102988.73;1488923;93;21001;-73
2022/01/11 10:42:05;;;;;;;101.53;45.83;;;;;;;-3.78;83.43;102992.25;1503812;93;21542;-72
2022/01/11 10:44:50;;;;;;;93.72;43.60;;;;;;;-3.71;83.39;102989.08;1491197;93;20990;-73
2022/01/11 10:47:23;;;;;;;81.87;39.73;;;;;;;-3.76;83.38;102980.24;1492256;93;21059;-72
2022/01/11 10:49:56;;;;;;;88.45;40.75;;;;;;;-3.59;83.32;102984.45;1538468;92;21390;-73
2022/01/11 10:52:26;;;;;;;90.00;38.53;;;;;;;-3.53;83.48;102985.82;1493971;94;21031;-73
2022/01/11 10:54:53;;;;;;;80.57;38.33;;;;;;;-3.61;83.48;102967.90;1503113;93;20983;-73
2022/01/11 10:57:27;;;;;;;85.70;40.08;;;;;;;-3.49;83.50;102971.39;1518163;92;21038;-72
2022/01/11 11:00:14;;;;;;;81.20;39.98;;;;;;;-3.32;83.53;102990.42;1495249;93;21009;-73
2022/01/11 11:02:42;;;;;;;78.87;36.88;;;;;;;-3.26;83.47;102988.75;1502106;94;20964;-73
2022/01/11 11:05:19;;;;;;;79.62;37.60;;;;;;;-3.21;83.51;102980.75;1500542;93;20962;-72
2022/01/11 11:08:23;;;;;;;77.37;37.75;;;;;;;-3.14;83.51;102984.27;1502494;92;22066;-72
2022/01/11 11:11:00;;;;;;;76.77;37.70;;;;;;;-3.08;83.50;102978.76;1501094;93;20991;-72
2022/01/11 11:13:37;;;;;;;80.17;37.73;;;;;;;-3.01;83.47;102978.47;1506363;93;20962;-72
2022/01/11 11:16:20;;;;;;;87.45;42.98;;;;;;;-2.94;83.58;102974.75;1511668;93;21080;-72
2022/01/11 11:19:00;;;;;;;89.55;41.35;;;;;;;-2.85;83.59;102976.72;1502607;93;21015;-72
2022/01/11 11:21:37;;;;;;;84.37;41.70;;;;;;;-2.78;83.59;102976.42;1498500;93;21077;-72
2022/01/11 11:24:08;;;;;;;87.08;43.02;;;;;;;-2.70;83.60;102977.50;1509648;93;21135;-72
2022/01/11 11:26:41;;;;;;;84.52;40.38;;;;;;;-2.64;83.56;102972.40;1506978;93;21357;-72